Time;durP1;ratioP1;P1;durP2;ratioP2;P2;SDS_P1;SDS_P2;PMS_P1;PMS_P2;Temp;Humidity;BMP_temperature;BMP_pressure;BME280_temperature;BME280_humidity;BME280_pressure;Samples;Min_cycle;Max_cycle;Signal;HPM_P1;HPM_P2
2022/06/10 00:02:16;;;;;;;0.30;0.30;;;17.00;99.90;16.70;101829.00;;;;5035570;28;20194;-68
2022/06/10 00:05:02;;;;;;;0.20;0.20;;;16.90;99.90;16.60;101801.00;;;;5050821;28;20540;-69
2022/06/10 00:08:12;;;;;;;0.20;0.20;;;16.80;99.90;16.50;101832.00;;;;5050971;28;20237;-68
2022/06/10 00:11:05;;;;;;;0.20;0.20;;;16.80;99.90;16.50;101831.00;;;;5051021;28;20191;-68
2022/06/10 00:13:52;;;;;;;1.93;0.77;;;16.80;99.90;16.50;101827.00;;;;5050873;28;20170;-68
2022/06/10 00:16:45;;;;;;;0.20;0.20;;;16.70;99.90;16.40;101803.00;;;;5051068;28;20227;-68
2022/06/10 00:19:41;;;;;;;0.30;0.30;;;16.70;99.90;16.50;101823.00;;;;5050972;28;20242;-68
2022/06/10 00:22:42;;;;;;;0.20;0.20;;;16.70;99.90;16.60;101830.00;;;;5034992;28;20662;-68
2022/06/10 00:25:45;;;;;;;0.40;0.40;;;16.80;99.90;16.40;101827.00;;;;5033907;28;20196;-68
2022/06/10 00:28:33;;;;;;;0.40;0.40;;;16.80;99.90;16.60;101836.00;;;;5050526;28;20568;-68
2022/06/10 00:31:35;;;;;;;0.20;0.20;;;16.80;99.90;16.60;101827.00;;;;5050428;28;20205;-67
2022/06/10 00:34:26;;;;;;;0.20;0.20;;;16.80;99.90;16.60;101789.00;;;;5033715;28;20284;-68
2022/06/10 00:37:12;;;;;;;0.20;0.20;;;16.80;99.90;16.70;101834.00;;;;5049875;28;20175;-68
2022/06/10 00:40:02;;;;;;;0.20;0.20;;;16.90;99.90;16.40;101808.00;;;;5050267;28;20626;-68
2022/06/10 00:43:06;;;;;;;0.60;0.37;;;16.80;99.90;16.40;101823.00;;;;5050678;28;20635;-68
2022/06/10 00:46:11;;;;;;;0.20;0.20;;;16.70;99.90;16.40;101844.00;;;;5050339;28;20200;-68
2022/06/10 00:49:06;;;;;;;0.20;0.20;;;16.70;99.90;16.50;101836.00;;;;5049908;28;20554;-68
2022/06/10 00:52:00;;;;;;;0.20;0.20;;;16.70;99.90;16.50;101843.00;;;;5034245;28;20692;-68
2022/06/10 00:55:04;;;;;;;0.20;0.20;;;16.70;99.90;16.50;101838.00;;;;5032530;28;20193;-68
2022/06/10 00:57:50;;;;;;;0.20;0.20;;;16.80;99.90;16.70;101834.00;;;;5050537;28;20180;-68
2022/06/10 01:00:38;;;;;;;0.30;0.30;;;16.90;99.90;16.80;101832.00;;;;5034700;28;20182;-68
2022/06/10 01:03:42;;;;;;;1.40;1.20;;;16.90;99.90;16.60;101828.00;;;;5033262;28;20200;-67
2022/06/10 01:06:33;;;;;;;0.30;0.30;;;16.90;99.90;16.60;101826.00;;;;5049902;28;20549;-68
2022/06/10 01:09:19;;;;;;;0.20;0.20;;;16.90;99.90;16.70;101833.00;;;;5033888;28;20198;-68
2022/06/10 01:12:22;;;;;;;0.20;0.20;;;16.80;99.90;16.30;101827.00;;;;5049910;28;20205;-67
2022/06/10 01:15:10;;;;;;;0.20;0.20;;;16.70;99.90;16.40;101833.00;;;;5034250;28;20185;-68
2022/06/10 01:18:07;;;;;;;0.20;0.20;;;16.70;99.90;16.50;101839.00;;;;5034028;28;20188;-68
2022/06/10 01:21:23;;;;;;;0.20;0.20;;;16.80;99.90;16.50;101841.00;;;;5049695;28;20186;-68
2022/06/10 01:24:20;;;;;;;0.87;0.87;;;16.70;99.90;16.60;101834.00;;;;5034188;28;20185;-67
2022/06/10 01:30:14;;;;;;;0.70;0.70;;;16.80;99.90;16.40;101838.00;;;;5034397;28;20198;-68
2022/06/10 01:33:01;;;;;;;0.30;0.30;;;16.80;99.90;16.40;101839.00;;;;5049105;28;20685;-68
2022/06/10 01:35:54;;;;;;;0.30;0.30;;;16.70;99.90;16.50;101839.00;;;;5034011;28;20184;-68
2022/06/10 01:38:34;;;;;;;0.20;0.20;;;16.70;99.90;16.60;101834.00;;;;5032743;28;20540;-68
2022/06/10 01:41:38;;;;;;;0.67;0.67;;;16.80;99.90;16.30;101839.00;;;;5048639;28;20193;-67
2022/06/10 01:44:30;;;;;;;0.20;0.20;;;16.70;99.90;16.30;101839.00;;;;5032429;28;20189;-68
2022/06/10 01:47:31;;;;;;;0.20;0.20;;;16.70;99.90;16.10;101830.00;;;;5033434;28;20552;-68
2022/06/10 01:50:21;;;;;;;0.20;0.20;;;16.60;99.90;16.30;101842.00;;;;5033543;28;20193;-68
2022/06/10 01:53:37;;;;;;;0.67;0.40;;;16.50;99.90;16.30;101832.00;;;;5048877;28;20250;-67
2022/06/10 01:56:24;;;;;;;0.30;0.30;;;16.50;99.90;16.50;101828.00;;;;5033646;28;20183;-68
2022/06/10 01:59:37;;;;;;;0.23;0.23;;;16.60;99.90;16.30;101833.00;;;;5049046;28;20657;-68
2022/06/10 02:02:52;;;;;;;0.30;0.30;;;16.60;99.90;16.40;101830.00;;;;5015074;28;20231;-68
2022/06/10 02:06:27;;;;;;;0.30;0.30;;;16.70;99.90;16.30;101839.00;;;;5031588;28;20191;-68
2022/06/10 02:09:28;;;;;;;3.40;3.20;;;16.60;99.90;16.20;101837.00;;;;5020671;28;20231;-68
2022/06/10 02:12:28;;;;;;;0.30;0.30;;;16.60;99.90;16.40;101841.00;;;;5048912;28;20212;-68
2022/06/10 02:15:18;;;;;;;0.50;0.50;;;16.60;99.90;16.30;101836.00;;;;5048621;28;20185;-68
2022/06/10 02:18:35;;;;;;;3.03;0.60;;;16.60;99.90;16.30;101840.00;;;;5048556;28;20181;-68
2022/06/10 02:21:45;;;;;;;0.30;0.30;;;16.60;99.90;16.50;101835.00;;;;5028181;28;20255;-68
2022/06/10 02:24:31;;;;;;;0.30;0.30;;;16.70;99.90;16.50;101818.00;;;;5033106;28;20196;-68
2022/06/10 02:27:23;;;;;;;0.30;0.30;;;16.60;99.90;16.60;101842.00;;;;5033128;28;20229;-68
2022/06/10 02:30:07;;;;;;;0.47;0.47;;;16.70;99.90;16.90;101843.00;;;;5048817;28;20185;-68
2022/06/10 02:33:00;;;;;;;0.30;0.30;;;16.90;99.90;16.60;101840.00;;;;5032867;28;20229;-68
2022/06/10 02:36:08;;;;;;;0.30;0.30;;;16.80;99.90;16.40;101846.00;;;;5047568;28;20186;-67
2022/06/10 02:38:48;;;;;;;0.30;0.30;;;16.70;99.90;16.50;101855.00;;;;5033152;28;20188;-68
2022/06/10 02:41:39;;;;;;;0.30;0.30;;;16.70;99.90;16.40;101850.00;;;;5048912;28;20190;-68
2022/06/10 02:44:43;;;;;;;0.87;0.80;;;16.70;99.90;16.50;101839.00;;;;5047700;28;20274;-68
2022/06/10 02:47:26;;;;;;;0.53;0.53;;;16.70;99.90;16.60;101852.00;;;;5031630;28;20189;-68
2022/06/10 02:50:17;;;;;;;0.30;0.30;;;16.70;99.90;16.60;101831.00;;;;5032920;28;20630;-68
2022/06/10 02:53:06;;;;;;;0.30;0.30;;;16.70;99.90;16.50;101849.00;;;;5048003;28;20306;-68
2022/06/10 02:55:58;;;;;;;0.30;0.30;;;16.80;99.90;16.40;101836.00;;;;5048621;28;20181;-68
2022/06/10 03:02:23;;;;;;;0.30;0.30;;;16.70;99.90;16.60;101843.00;;;;5032108;28;20256;-68
2022/06/10 03:05:15;;;;;;;0.30;0.30;;;16.70;99.90;16.80;101843.00;;;;5048312;28;20196;-68
2022/06/10 03:08:13;;;;;;;0.30;0.30;;;16.80;99.90;16.90;101838.00;;;;5031446;28;20346;-68
2022/06/10 03:11:08;;;;;;;0.30;0.30;;;16.90;99.90;16.50;101802.00;;;;5048480;28;20299;-68
2022/06/10 03:13:54;;;;;;;0.30;0.30;;;16.80;99.90;16.50;101805.00;;;;5032606;28;20188;-68
2022/06/10 03:17:04;;;;;;;0.30;0.30;;;16.80;99.90;16.50;101846.00;;;;5033129;28;20271;-68
2022/06/10 03:20:14;;;;;;;0.40;0.40;;;16.80;99.90;16.30;101840.00;;;;5051135;28;20178;-68
2022/06/10 03:23:16;;;;;;;0.30;0.30;;;16.70;99.90;16.40;101843.00;;;;5034116;28;20216;-68
2022/06/10 03:26:16;;;;;;;0.30;0.30;;;16.70;99.90;16.30;101843.00;;;;5034340;28;20543;-68
2022/06/10 03:29:10;;;;;;;0.30;0.30;;;16.70;99.90;16.30;101849.00;;;;5034254;28;20197;-68
2022/06/10 03:32:12;;;;;;;0.33;0.33;;;16.60;99.90;16.30;101837.00;;;;4998973;28;20236;-69
2022/06/10 03:35:11;;;;;;;0.30;0.30;;;16.70;99.90;16.40;101837.00;;;;5014262;28;20800;-68
2022/06/10 03:38:13;;;;;;;0.30;0.30;;;16.70;99.90;16.60;101843.00;;;;5030560;28;20660;-69
2022/06/10 03:41:05;;;;;;;0.67;0.43;;;16.70;99.90;16.40;101839.00;;;;5030861;28;20283;-68
2022/06/10 03:44:14;;;;;;;0.40;0.40;;;16.70;99.90;16.40;101836.00;;;;5029973;28;20681;-68
2022/06/10 03:47:20;;;;;;;1.00;1.00;;;16.80;99.90;16.50;101834.00;;;;5030836;28;20192;-68
2022/06/10 03:50:29;;;;;;;0.30;0.30;;;16.70;99.90;16.50;101835.00;;;;5030550;28;20182;-68
2022/06/10 03:53:52;;;;;;;0.33;0.33;;;16.70;99.90;16.40;101836.00;;;;5031266;28;20214;-68
2022/06/10 03:57:01;;;;;;;0.40;0.40;;;16.70;99.90;16.40;101834.00;;;;5014922;28;20182;-68
2022/06/10 04:00:06;;;;;;;0.40;0.40;;;16.70;99.90;16.60;101837.00;;;;5016417;28;20180;-68
2022/06/10 04:03:10;;;;;;;0.30;0.30;;;16.80;99.90;16.60;101841.00;;;;5015804;28;20189;-68
2022/06/10 04:06:14;;;;;;;0.50;0.50;;;16.80;99.90;16.70;101848.00;;;;5015935;28;20185;-68
2022/06/10 04:09:23;;;;;;;1.27;0.60;;;16.90;99.90;16.70;101807.00;;;;5014571;28;20236;-68
2022/06/10 04:12:25;;;;;;;0.37;0.37;;;16.90;99.90;16.80;101836.00;;;;5015561;28;20204;-68
2022/06/10 04:15:29;;;;;;;6.90;1.77;;;16.90;99.90;16.40;101841.00;;;;4998459;28;20632;-68
2022/06/10 04:18:30;;;;;;;0.50;0.50;;;16.80;99.90;16.50;101843.00;;;;5014828;28;20189;-68
2022/06/10 04:21:49;;;;;;;0.30;0.30;;;16.80;99.90;16.70;101836.00;;;;5014542;28;20280;-68
2022/06/10 04:24:53;;;;;;;0.20;0.20;;;16.80;99.90;16.60;101848.00;;;;5014698;28;20182;-68
2022/06/10 04:27:56;;;;;;;0.30;0.30;;;16.80;99.90;16.40;101806.00;;;;5013922;28;20233;-68
2022/06/10 04:31:04;;;;;;;0.30;0.30;;;16.70;99.90;16.40;101845.00;;;;5015354;28;20221;-68
2022/06/10 04:34:11;;;;;;;1.10;1.10;;;16.80;99.90;16.50;101859.00;;;;5047220;28;20201;-68
2022/06/10 04:37:12;;;;;;;0.40;0.40;;;16.70;99.90;16.50;101806.00;;;;5016137;28;20194;-68
2022/06/10 04:40:18;;;;;;;0.30;0.30;;;16.80;99.90;16.70;101846.00;;;;5014289;28;20186;-68
2022/06/10 04:43:27;;;;;;;0.40;0.40;;;16.80;99.90;16.80;101850.00;;;;5015479;28;20185;-68
2022/06/10 04:46:34;;;;;;;0.40;0.40;;;17.00;99.90;16.60;101854.00;;;;5014056;28;20561;-68
2022/06/10 04:49:42;;;;;;;1.20;1.10;;;16.90;99.90;16.60;101850.00;;;;5013811;28;20630;-68
2022/06/10 04:53:01;;;;;;;0.87;0.40;;;16.90;99.90;16.40;101844.00;;;;5013547;28;20210;-68
2022/06/10 04:56:07;;;;;;;0.37;0.37;;;16.90;99.90;16.60;101850.00;;;;5013553;28;20183;-68
2022/06/10 04:59:28;;;;;;;1.03;0.60;;;16.90;99.90;16.70;101839.00;;;;5014095;28;20175;-68
2022/06/10 05:02:36;;;;;;;0.30;0.30;;;16.90;99.90;16.90;101838.00;;;;5014783;28;20187;-68
2022/06/10 05:05:41;;;;;;;0.30;0.30;;;17.10;99.90;16.80;101839.00;;;;5013521;28;20196;-67
2022/06/10 05:08:42;;;;;;;0.40;0.40;;;17.00;99.90;16.90;101831.00;;;;5013523;28;20269;-68
2022/06/10 05:11:45;;;;;;;3.67;1.83;;;17.10;99.90;17.00;101846.00;;;;5013493;28;20180;-68
2022/06/10 05:14:46;;;;;;;0.40;0.40;;;17.20;99.90;17.00;101807.00;;;;5013799;28;20587;-68
2022/06/10 05:17:50;;;;;;;0.30;0.30;;;17.20;99.90;16.80;101835.00;;;;5015097;28;20181;-68
2022/06/10 05:20:54;;;;;;;0.30;0.30;;;17.20;99.90;16.90;101841.00;;;;5013465;28;20185;-68
2022/06/10 05:23:58;;;;;;;0.67;0.67;;;17.10;99.90;16.90;101831.00;;;;5014461;28;20557;-68
2022/06/10 05:27:01;;;;;;;0.73;0.73;;;17.20;99.90;17.20;101841.00;;;;5013718;28;20179;-68
2022/06/10 05:30:03;;;;;;;2.87;1.87;;;17.30;99.90;16.80;101837.00;;;;5012997;28;20182;-68
2022/06/10 05:32:49;;;;;;;1.23;1.13;;;17.30;99.90;17.00;101846.00;;;;5014319;28;20237;-68
2022/06/10 05:35:55;;;;;;;0.70;0.70;;;17.20;99.90;17.00;101840.00;;;;5013417;28;20187;-68
2022/06/10 05:38:46;;;;;;;0.47;0.47;;;17.30;99.90;17.10;101803.00;;;;5019637;28;20229;-68
2022/06/10 05:42:08;;;;;;;0.67;0.67;;;17.30;99.90;17.10;101842.00;;;;5048102;28;20226;-68
2022/06/10 05:45:14;;;;;;;0.50;0.50;;;17.40;99.90;16.90;101847.00;;;;5047572;28;20645;-68
2022/06/10 05:48:18;;;;;;;2.27;0.80;;;17.30;99.90;17.10;101845.00;;;;5032751;28;20534;-68
2022/06/10 05:51:04;;;;;;;0.60;0.60;;;17.30;99.90;17.00;101818.00;;;;5049304;28;20192;-68
2022/06/10 05:54:15;;;;;;;0.90;0.90;;;17.30;99.90;17.10;101847.00;;;;5033751;28;20224;-68
2022/06/10 05:57:34;;;;;;;0.30;0.30;;;17.40;99.90;17.00;101808.00;;;;5049065;28;20183;-68
2022/06/10 06:00:24;;;;;;;1.67;0.97;;;17.40;99.90;17.10;101859.00;;;;5049392;28;20170;-68
2022/06/10 06:03:15;;;;;;;3.13;2.03;;;17.40;99.90;17.00;101860.00;;;;5032136;28;20611;-68
2022/06/10 06:06:03;;;;;;;0.30;0.30;;;17.40;99.90;17.00;101823.00;;;;5048864;28;20179;-69
2022/06/10 06:08:59;;;;;;;0.57;0.57;;;17.40;99.90;17.40;101872.00;;;;5048502;28;20178;-68
2022/06/10 06:11:48;;;;;;;0.77;0.77;;;17.50;99.90;17.00;101872.00;;;;5033306;28;20701;-68
2022/06/10 06:14:51;;;;;;;0.40;0.40;;;17.40;99.90;17.10;101881.00;;;;5033644;28;20176;-68
2022/06/10 06:17:30;;;;;;;0.50;0.50;;;17.40;99.90;17.30;101892.00;;;;5048576;28;20173;-68
2022/06/10 06:20:23;;;;;;;2.03;1.87;;;17.50;99.90;17.00;101883.00;;;;5048367;28;20573;-68
2022/06/10 06:23:14;;;;;;;0.30;0.30;;;17.40;99.90;17.30;101889.00;;;;5048264;28;20180;-68
2022/06/10 06:26:03;;;;;;;2.47;1.50;;;17.50;99.90;17.20;101875.00;;;;5031948;28;20185;-68
2022/06/10 06:29:11;;;;;;;0.83;0.83;;;17.50;99.90;17.10;101884.00;;;;5048921;28;20264;-68
2022/06/10 06:31:59;;;;;;;1.00;0.90;;;17.50;99.90;17.00;101874.00;;;;5032757;28;20756;-68
2022/06/10 06:34:48;;;;;;;0.60;0.43;;;17.50;99.90;17.40;101844.00;;;;5033434;28;20183;-68
2022/06/10 06:37:42;;;;;;;1.80;1.23;;;17.60;99.90;17.30;101844.00;;;;5048494;28;20213;-68
2022/06/10 06:40:18;;;;;;;0.30;0.30;;;17.70;99.90;17.40;101884.00;;;;5048547;28;20265;-68
2022/06/10 06:43:12;;;;;;;1.07;0.50;;;17.60;99.90;17.10;101884.00;;;;5048617;28;20525;-68
2022/06/10 06:45:43;;;;;;;0.50;0.50;;;17.50;99.90;17.10;101885.00;;;;5032216;28;20255;-69
2022/06/10 06:48:37;;;;;;;0.30;0.30;;;17.50;99.90;17.50;101891.00;;;;5048618;28;20684;-68
2022/06/10 06:51:46;;;;;;;0.30;0.30;;;17.60;99.90;17.60;101896.00;;;;5031445;28;20213;-69
2022/06/10 06:57:41;;;;;;;3.60;1.57;;;17.80;99.90;17.20;101891.00;;;;5049612;28;20299;-68
2022/06/10 07:00:30;;;;;;;1.47;1.37;;;17.60;99.90;17.40;101900.00;;;;5037005;28;20184;-69
2022/06/10 07:02:58;;;;;;;0.40;0.40;;;17.80;99.90;17.20;101888.00;;;;5052174;28;20194;-69
2022/06/10 07:05:24;;;;;;;0.30;0.30;;;17.70;99.90;18.20;101911.00;;;;5052127;28;20218;-69
2022/06/10 07:08:17;;;;;;;0.50;0.50;;;18.00;99.90;17.40;101895.00;;;;5052305;28;20644;-69
2022/06/10 07:11:24;;;;;;;0.43;0.43;;;18.00;99.90;17.80;101897.00;;;;5035713;28;20210;-69
2022/06/10 07:14:28;;;;;;;0.30;0.30;;;18.00;99.90;17.80;101877.00;;;;5035624;28;20204;-68
2022/06/10 07:17:17;;;;;;;0.87;0.87;;;18.00;99.90;17.60;101902.00;;;;5052009;28;20264;-68
2022/06/10 07:20:04;;;;;;;0.30;0.30;;;18.10;99.90;17.70;101902.00;;;;5035869;28;20191;-68
2022/06/10 07:22:50;;;;;;;0.30;0.30;;;18.10;99.90;17.70;101913.00;;;;5051857;28;20188;-68
2022/06/10 07:25:39;;;;;;;0.33;0.33;;;18.10;99.90;17.50;101906.00;;;;5051996;28;20256;-69
2022/06/10 07:28:35;;;;;;;0.40;0.40;;;18.00;99.90;18.00;101902.00;;;;5051572;28;20183;-68
2022/06/10 07:31:40;;;;;;;0.30;0.30;;;18.30;99.90;18.60;101916.00;;;;5051407;28;20243;-69
2022/06/10 07:34:48;;;;;;;0.30;0.30;;;18.60;99.90;18.10;101915.00;;;;5034741;28;20544;-69
2022/06/10 07:37:50;;;;;;;0.30;0.30;;;18.70;99.90;19.20;101920.00;;;;5034859;28;20254;-69
2022/06/10 07:44:14;;;;;;;0.38;0.38;;;19.40;99.90;19.80;101925.00;;;;5049579;28;20266;-69
2022/06/10 07:46:45;;;;;;;0.20;0.20;;;19.60;99.90;20.60;101941.00;;;;5051522;28;20209;-69
2022/06/10 07:49:46;;;;;;;0.20;0.20;;;20.30;99.90;19.60;101928.00;;;;5035974;28;20183;-69
2022/06/10 07:52:35;;;;;;;0.40;0.40;;;20.10;99.90;19.40;101911.00;;;;5051147;28;20251;-69
2022/06/10 07:55:09;;;;;;;0.20;0.20;;;19.90;99.90;19.50;101916.00;;;;5033550;28;20588;-69
2022/06/10 07:57:55;;;;;;;0.85;0.68;;;19.80;99.90;20.20;101922.00;;;;5015236;28;20290;-69
2022/06/10 08:00:57;;;;;;;0.28;0.28;;;20.00;99.90;20.70;101928.00;;;;5015100;28;20251;-70
2022/06/10 08:03:44;;;;;;;0.20;0.20;;;20.80;99.90;21.60;101947.00;;;;5019884;28;20263;-69
2022/06/10 08:06:11;;;;;;;0.10;0.10;;;21.30;99.90;23.60;101974.00;;;;5032730;28;20186;-70
2022/06/10 08:08:37;;;;;;;0.10;0.10;;;22.40;99.90;24.30;102002.00;;;;5014383;28;20242;-70
2022/06/10 08:11:23;;;;;;;0.10;0.10;;;23.30;99.90;23.40;101983.00;;;;5013736;28;20203;-69
2022/06/10 08:14:09;;;;;;;0.10;0.10;;;23.10;99.90;23.00;101972.00;;;;5045993;28;20169;-69
2022/06/10 08:17:16;;;;;;;0.10;0.10;;;23.10;99.90;26.70;102044.00;;;;5030596;28;20546;-69
2022/06/10 08:23:41;;;;;;;3.30;1.55;;;24.60;99.90;23.60;102025.00;;;;5042563;28;20274;-69
2022/06/10 08:26:25;;;;;;;0.52;0.52;;;23.70;99.90;22.30;102011.00;;;;5047041;28;20623;-69
2022/06/10 08:29:18;;;;;;;1.25;0.50;;;23.30;99.90;24.10;102035.00;;;;5015350;28;20167;-68
2022/06/10 08:32:04;;;;;;;0.30;0.30;;;24.00;99.90;24.50;102032.00;;;;5013379;28;20229;-69
2022/06/10 08:34:48;;;;;;;0.25;0.25;;;24.20;99.90;24.40;102052.00;;;;5046950;28;20187;-69
2022/06/10 08:37:39;;;;;;;0.10;0.10;;;24.60;99.90;25.80;102056.00;;;;5015713;28;20203;-69
2022/06/10 08:40:48;;;;;;;2.30;0.70;;;25.20;99.90;23.20;102009.00;;;;5015306;28;20579;-69
2022/06/10 08:43:39;;;;;;;0.13;0.13;;;24.20;99.90;21.80;101947.00;;;;5015196;28;20218;-69
2022/06/10 08:46:10;;;;;;;2.42;1.17;;;22.40;99.90;23.20;102005.00;;;;5015197;28;20214;-70
2022/06/10 08:49:14;;;;;;;1.10;1.02;;;22.80;99.90;23.90;102019.00;;;;5015266;28;20179;-69
2022/06/10 08:52:03;;;;;;;0.10;0.10;;;23.40;99.90;25.20;102039.00;;;;5015044;28;20211;-69
2022/06/10 08:55:38;;;;;;;0.10;0.10;;;24.50;99.90;28.40;102076.00;;;;5025204;28;20195;-69
2022/06/10 08:58:40;;;;;;;0.10;0.10;;;26.50;99.90;27.40;102082.00;;;;5034761;28;20175;-69
2022/06/10 09:02:00;;;;;;;1.95;1.02;;;26.90;99.90;24.10;102052.00;;;;5002563;28;20729;-69
2022/06/10 09:05:40;;;;;;;3.40;0.77;;;25.20;99.90;22.40;102003.00;;;;5025080;28;20237;-69
2022/06/10 09:08:47;;;;;;;0.10;0.10;;;23.20;99.90;23.80;102018.00;;;;5012191;28;20617;-69
2022/06/10 09:11:45;;;;;;;2.28;0.35;;;23.40;99.90;23.20;101994.00;;;;5011916;28;20195;-69
2022/06/10 09:18:07;;;;;;;0.30;0.30;;;23.50;99.90;21.60;101971.00;;;;5008699;28;20640;-69
2022/06/10 09:21:02;;;;;;;0.10;0.10;;;22.60;99.90;22.30;101980.00;;;;4989466;28;20196;-69
2022/06/10 09:23:47;;;;;;;0.25;0.25;;;22.50;99.90;23.70;102009.00;;;;4986719;28;20238;-69
2022/06/10 09:26:36;;;;;;;0.10;0.10;;;23.20;99.90;26.30;102062.00;;;;5014541;28;20179;-70
2022/06/10 09:29:09;;;;;;;0.28;0.28;;;25.00;99.90;25.60;102065.00;;;;5013118;28;20254;-69
2022/06/10 09:32:12;;;;;;;0.10;0.10;;;25.50;99.90;25.90;102054.00;;;;5045901;28;20215;-69
2022/06/10 09:35:27;;;;;;;0.17;0.17;;;25.10;99.90;28.00;102085.00;;;;5029811;28;20180;-70
2022/06/10 09:38:29;;;;;;;0.40;0.40;;;26.30;99.90;25.20;102027.00;;;;5014431;28;20282;-69
2022/06/10 09:41:39;;;;;;;0.65;0.65;;;25.30;99.90;24.10;102044.00;;;;5046074;28;20545;-70
2022/06/10 09:44:29;;;;;;;3.17;0.80;;;24.40;99.90;22.90;102010.00;;;;5029229;28;20180;-69
2022/06/10 09:54:55;;;;;;;0.82;0.82;;;22.80;99.90;24.30;102036.00;;;;4972431;28;20196;-69
2022/06/10 09:58:08;;;;;;;0.30;0.30;;;24.00;99.90;23.00;102012.00;;;;4972584;28;20208;-69
2022/06/10 10:01:07;;;;;;;0.20;0.20;;;23.20;99.90;22.30;101995.00;;;;4972447;28;20276;-69
2022/06/10 10:04:00;;;;;;;1.27;1.17;;;22.70;99.90;22.60;101984.00;;;;4972438;28;20293;-69
2022/06/10 10:06:52;;;;;;;0.40;0.40;;;22.60;99.90;22.10;101991.00;;;;4991830;28;20228;-69
2022/06/10 10:10:02;;;;;;;0.10;0.10;;;22.40;99.90;23.50;101990.00;;;;4991168;28;20202;-69
2022/06/10 10:13:49;;;;;;;0.10;0.10;;;23.30;99.90;24.10;102020.00;;;;4991764;28;20211;-69
2022/06/10 10:17:16;;;;;;;2.42;1.42;;;24.10;99.90;25.00;102051.00;;;;4991711;28;20543;-69
2022/06/10 10:20:21;;;;;;;1.90;0.82;;;24.70;99.90;22.70;102029.00;;;;4975406;28;20207;-69
2022/06/10 10:33:18;;;;;;;0.10;0.10;;;26.40;99.90;25.90;102074.00;;;;5070061;28;20973;-71
2022/06/10 10:35:52;;;;;;;0.10;0.10;;;26.20;99.90;24.40;102031.00;;;;5049168;28;20186;-68
2022/06/10 10:39:42;;;;;;;0.40;0.40;;;25.30;99.90;25.50;102068.00;;;;5049540;28;20277;-68
2022/06/10 10:42:20;;;;;;;2.25;0.75;;;25.80;99.90;25.70;102074.00;;;;5026333;28;20187;-68
2022/06/10 10:45:34;;;;;;;0.10;0.10;;;25.80;99.90;27.60;102085.00;;;;5011360;28;20546;-68
2022/06/10 10:48:44;;;;;;;0.85;0.60;;;26.50;99.90;26.10;102088.00;;;;5008932;28;20199;-68
2022/06/10 10:51:33;;;;;;;0.45;0.45;;;26.70;99.90;24.80;102057.00;;;;5011659;28;20199;-68
2022/06/10 10:54:18;;;;;;;0.40;0.40;;;25.60;99.90;25.60;102067.00;;;;5045699;28;20202;-68
2022/06/10 10:56:52;;;;;;;0.20;0.20;;;25.20;99.90;25.10;102063.00;;;;5031976;28;20579;-68
2022/06/10 10:59:36;;;;;;;0.10;0.10;;;25.10;99.90;25.70;102067.00;;;;5049339;28;20178;-68
2022/06/10 11:02:35;;;;;;;6.65;1.05;;;25.30;99.90;25.10;102026.00;;;;5050139;28;20189;-68
2022/06/10 11:05:37;;;;;;;0.20;0.20;;;25.20;99.90;23.50;102008.00;;;;5061552;28;20202;-69
2022/06/10 11:08:05;;;;;;;0.10;0.10;;;24.30;99.90;23.40;101991.00;;;;5048660;28;20227;-68
2022/06/10 11:11:19;;;;;;;0.40;0.40;;;23.70;99.90;24.10;102040.00;;;;5049991;28;20194;-68
2022/06/10 11:13:51;;;;;;;0.30;0.30;;;23.90;99.90;23.90;102034.00;;;;5049405;28;20260;-68
2022/06/10 11:16:31;;;;;;;0.20;0.20;;;23.80;99.90;23.20;102012.00;;;;5050042;28;20174;-68
2022/06/10 11:19:00;;;;;;;0.22;0.22;;;23.40;99.90;23.80;102015.00;;;;5048632;28;20252;-68
2022/06/10 11:21:29;;;;;;;0.10;0.10;;;23.60;99.90;23.70;102027.00;;;;5049789;28;20217;-68
2022/06/10 11:23:58;;;;;;;0.60;0.60;;;23.60;99.90;24.00;102014.00;;;;5048414;28;20601;-68
2022/06/10 11:26:48;;;;;;;1.65;0.82;;;23.80;99.90;24.10;102019.00;;;;5048397;28;20185;-68
2022/06/10 11:29:21;;;;;;;0.20;0.20;;;23.90;99.90;24.40;101985.00;;;;5048441;28;20269;-68
2022/06/10 11:32:03;;;;;;;0.20;0.20;;;24.20;99.90;24.80;102034.00;;;;5048126;28;20218;-68
2022/06/10 11:35:20;;;;;;;0.20;0.20;;;24.40;99.90;24.60;102036.00;;;;5048633;28;20194;-70
2022/06/10 11:38:24;;;;;;;0.30;0.30;;;24.50;99.90;24.10;102041.00;;;;5049159;28;20210;-68
2022/06/10 11:40:52;;;;;;;0.60;0.60;;;24.30;99.90;24.60;102049.00;;;;5046103;28;20654;-69
2022/06/10 11:43:34;;;;;;;0.22;0.22;;;24.40;99.90;24.40;102038.00;;;;5046546;28;20643;-69
2022/06/10 11:46:07;;;;;;;2.20;0.43;;;24.10;99.90;23.90;102018.00;;;;5035143;28;20182;-69
2022/06/10 11:48:42;;;;;;;0.65;0.50;;;23.90;99.90;24.10;102017.00;;;;5034478;28;20641;-70
2022/06/10 11:51:21;;;;;;;0.10;0.10;;;23.80;99.90;24.30;102017.00;;;;5034673;28;20661;-69
2022/06/10 11:54:26;;;;;;;0.10;0.10;;;23.90;99.90;25.40;102022.00;;;;5034494;28;20183;-69
2022/06/10 12:00:16;;;;;;;6.50;0.55;;;24.50;99.90;24.80;101991.00;;;;5035641;28;20186;-70
2022/06/10 12:03:11;;;;;;;0.20;0.20;;;24.50;99.90;24.90;102025.00;;;;5034317;28;20198;-70
2022/06/10 12:06:04;;;;;;;0.40;0.40;;;24.40;99.90;24.40;102028.00;;;;5035934;28;20229;-71
2022/06/10 12:08:59;;;;;;;0.20;0.20;;;24.30;99.90;24.10;102006.00;;;;5035372;28;20202;-70
2022/06/10 12:12:05;;;;;;;0.10;0.10;;;23.80;99.90;24.30;101998.00;;;;5035239;28;20187;-70
2022/06/10 12:14:59;;;;;;;0.50;0.43;;;23.90;99.90;24.00;102001.00;;;;5017516;28;20187;-70
2022/06/10 12:17:51;;;;;;;5.47;1.08;;;23.70;99.90;23.80;101992.00;;;;5035376;28;20175;-70
2022/06/10 12:20:29;;;;;;;0.45;0.45;;;23.50;99.90;24.70;102003.00;;;;5034274;28;20202;-70
2022/06/10 12:23:29;;;;;;;0.28;0.28;;;24.00;99.90;23.40;101986.00;;;;5035376;28;20183;-70
2022/06/10 12:26:45;;;;;;;10.05;1.00;;;23.70;99.90;23.30;101972.00;;;;5050471;28;20179;-70
2022/06/10 12:30:02;;;;;;;0.93;0.93;;;23.40;99.90;22.90;101957.00;;;;5034958;28;20183;-70
2022/06/10 12:32:58;;;;;;;0.32;0.32;;;23.00;99.90;24.20;101985.00;;;;5033795;28;20234;-70
2022/06/10 12:36:01;;;;;;;0.10;0.10;;;23.50;99.90;24.00;101947.00;;;;5035255;28;20168;-70
2022/06/10 12:38:36;;;;;;;0.10;0.10;;;23.70;99.90;25.00;101986.00;;;;5033190;28;20163;-70
2022/06/10 12:41:15;;;;;;;0.20;0.20;;;24.20;99.90;25.10;101997.00;;;;5026728;28;20548;-70
2022/06/10 12:44:09;;;;;;;0.55;0.55;;;24.60;99.90;26.00;102010.00;;;;5027843;28;20727;-71
2022/06/10 12:47:48;;;;;;;0.52;0.43;;;25.10;99.90;23.90;102002.00;;;;5031905;28;20210;-70
2022/06/10 12:54:32;;;;;;;0.10;0.10;;;23.90;99.90;25.30;102001.00;;;;5026766;28;20197;-70
2022/06/10 12:57:39;;;;;;;0.10;0.10;;;24.40;99.90;24.40;101990.00;;;;5014757;28;20623;-70
2022/06/10 13:00:35;;;;;;;0.30;0.30;;;24.40;99.90;24.20;101987.00;;;;5029182;28;20274;-70
2022/06/10 13:03:29;;;;;;;0.10;0.10;;;24.20;99.90;25.00;101990.00;;;;5033306;28;20556;-70
2022/06/10 13:05:55;;;;;;;0.45;0.35;;;24.40;99.90;23.80;101987.00;;;;5034611;28;20179;-70
2022/06/10 13:09:31;;;;;;;0.57;0.50;;;24.00;99.90;23.30;101969.00;;;;5030306;28;20194;-65
2022/06/10 13:12:10;;;;;;;0.13;0.13;;;23.50;99.90;24.00;101971.00;;;;5029600;28;20214;-65
2022/06/10 13:15:29;;;;;;;0.30;0.30;;;23.60;99.90;24.00;101989.00;;;;5029401;28;20194;-69
2022/06/10 13:21:50;;;;;;;0.10;0.10;;;24.00;99.90;24.80;101997.00;;;;5012742;28;20183;-77
2022/06/10 13:24:26;;;;;;;0.10;0.10;;;24.10;99.90;24.50;102002.00;;;;5010206;28;20198;-71
2022/06/10 13:26:53;;;;;;;0.20;0.20;;;24.10;99.90;24.10;101988.00;;;;5026477;28;20606;-71
2022/06/10 13:29:24;;;;;;;0.10;0.10;;;23.90;99.90;24.30;102001.00;;;;5000098;28;20527;-71
2022/06/10 13:31:56;;;;;;;0.10;0.10;;;23.90;99.90;24.00;101951.00;;;;5014874;28;20222;-71
2022/06/10 13:34:38;;;;;;;0.10;0.10;;;23.80;99.90;24.20;101980.00;;;;5028486;28;20241;-72
2022/06/10 13:37:24;;;;;;;1.85;1.75;;;23.60;99.90;25.10;101957.00;;;;4994434;28;20225;-71
2022/06/10 13:40:14;;;;;;;0.10;0.10;;;24.10;99.90;25.20;102003.00;;;;5020499;28;20265;-71
2022/06/10 13:42:56;;;;;;;0.10;0.10;;;24.40;99.90;24.70;101982.00;;;;5029677;28;20175;-72